Ambridge, PA

1:15 PM EST on February 12, 2016 (GMT -0500)
Ambridge Historic District | | Change Station
CLOSE
Current Station
Personal Weather Station
Location: Ambridge, PA
Elevation: 751 ft
Nearby Weather Stations
Active Advisory: Wind Chill Advisory

Elev 751 ft 40.60 °N, 80.23 °W | Updated 10 seconds ago

Overcast
Overcast
21.9 °F
Feels Like 22 °F
N
2.9
Wind Variable Wind from South
Gusts 9.0 mph

Today
High -- | Low -- °F
--% Chance of Precip.
Yesterday
High -- | Low -- °F
Precip. -- in
Pressure 30.13 in
Visibility 10.0 miles
Clouds Few 2200 ft
Scattered Clouds 6500 ft
Overcast 8500 ft
Windchill 22 °F
Dew Point 9 °F
Humidity 58%
Rainfall 0.00 in
Snow Depth Not available.
7:19 AM 5:51 PM
Waxing Crescent, 22% visible
METAR KPIT 121751Z 23008KT 10SM FEW022 SCT065 OVC085 M07/M16 A3004 RMK AO2 SLP202 T10721156 11072 21139 58023
Pressure 30.13 in
Visibility 10.0 miles
Clouds Few 2200 ft
Scattered Clouds 6500 ft
Overcast 8500 ft
Windchill 22 °F
Dew Point 9 °F
Humidity 58%
Rainfall 0.00 in
Snow Depth Not available.
7:19 AM 5:51 PM
Waxing Crescent, 22% visible
METAR KPIT 121751Z 23008KT 10SM FEW022 SCT065 OVC085 M07/M16 A3004 RMK AO2 SLP202 T10721156 11072 21139 58023

10-Day Weather Forecast

Almanac

Astronomy

Feb. 12, 2016 Rise Set
Actual Time
Civil Twilight
Nautical Twilight
Astronomical Twilight
Moon
Length of Visible Light
Length of Day
Tomorrow will be .
, % of the Moon is Illuminated

Today's Extremes

State Highs State Lows

Community

WunderPhotos

Upload Photos

1,892,359 photos uploaded!

WunderBlog® & News

Nearby

Air Quality

  Air Quality AQ Index Pollutant
Not available.

Snow Depth

Station Depth Elevation

Earthquake Activity

City Distance Mag. Time & Date
Minimum magnitude displayed is 2.5.

Coastal Water Temperatures

Place Temperature

Stations

Nearby Weather Stations

Station Location Temp. Windchill Dew Point Humidity Wind Precip. Elev Updated Type
                   

Watches & Warnings

Wind Chill Advisory
Issued: 11:58 AM EST Feb. 12, 2016 – National Weather Service

... Wind Chill Advisory remains in effect from midnight tonight to
9 am EST Sunday...

* wind chill... as low as 17 below due to temperatures 4 below to
14 above zero... and winds northwest 10 to 20 mph with gusts up
to 35 mph.

* Impacts... frost bite and hypothermia are possible if
precautions are not taken.